sensor_id;sensor_type;location;lat;lon;timestamp;P1;durP1;ratioP1;P2;durP2;ratioP2
62941;SDS011;49042;47.318;19.874;2023-12-07T00:00:37;43.15;;;24.42;;
62941;SDS011;49042;47.318;19.874;2023-12-07T00:03:39;41.35;;;23.10;;
62941;SDS011;49042;47.318;19.874;2023-12-07T00:06:40;45.28;;;25.15;;
62941;SDS011;49042;47.318;19.874;2023-12-07T00:09:42;44.22;;;25.10;;
62941;SDS011;49042;47.318;19.874;2023-12-07T00:12:44;45.15;;;25.83;;
62941;SDS011;49042;47.318;19.874;2023-12-07T00:15:46;44.05;;;25.42;;
62941;SDS011;49042;47.318;19.874;2023-12-07T00:18:48;46.95;;;25.08;;
62941;SDS011;49042;47.318;19.874;2023-12-07T00:21:50;47.38;;;24.95;;
62941;SDS011;49042;47.318;19.874;2023-12-07T00:24:51;45.25;;;24.67;;
62941;SDS011;49042;47.318;19.874;2023-12-07T00:27:53;44.63;;;23.85;;
62941;SDS011;49042;47.318;19.874;2023-12-07T00:30:55;49.22;;;25.08;;
62941;SDS011;49042;47.318;19.874;2023-12-07T00:33:58;47.60;;;25.35;;
62941;SDS011;49042;47.318;19.874;2023-12-07T00:37:00;48.60;;;24.50;;
62941;SDS011;49042;47.318;19.874;2023-12-07T00:40:02;45.25;;;24.70;;
62941;SDS011;49042;47.318;19.874;2023-12-07T00:43:05;47.83;;;25.55;;
62941;SDS011;49042;47.318;19.874;2023-12-07T00:46:08;47.55;;;25.00;;
62941;SDS011;49042;47.318;19.874;2023-12-07T00:49:10;42.62;;;24.40;;
62941;SDS011;49042;47.318;19.874;2023-12-07T00:52:12;45.25;;;25.23;;
62941;SDS011;49042;47.318;19.874;2023-12-07T00:55:14;46.70;;;24.42;;
62941;SDS011;49042;47.318;19.874;2023-12-07T00:58:16;41.42;;;22.40;;
62941;SDS011;49042;47.318;19.874;2023-12-07T01:01:18;45.33;;;23.60;;
62941;SDS011;49042;47.318;19.874;2023-12-07T01:04:20;42.47;;;24.55;;
62941;SDS011;49042;47.318;19.874;2023-12-07T01:07:21;44.00;;;23.77;;
62941;SDS011;49042;47.318;19.874;2023-12-07T01:10:23;40.38;;;22.60;;
62941;SDS011;49042;47.318;19.874;2023-12-07T01:13:25;41.10;;;21.73;;
62941;SDS011;49042;47.318;19.874;2023-12-07T01:16:27;38.97;;;22.77;;
62941;SDS011;49042;47.318;19.874;2023-12-07T01:19:29;36.65;;;22.52;;
62941;SDS011;49042;47.318;19.874;2023-12-07T01:22:30;35.25;;;22.23;;
62941;SDS011;49042;47.318;19.874;2023-12-07T01:25:32;37.83;;;21.33;;
62941;SDS011;49042;47.318;19.874;2023-12-07T01:28:34;36.17;;;19.50;;
62941;SDS011;49042;47.318;19.874;2023-12-07T01:31:36;32.67;;;19.92;;
62941;SDS011;49042;47.318;19.874;2023-12-07T01:34:38;33.63;;;19.73;;
62941;SDS011;49042;47.318;19.874;2023-12-07T01:37:40;32.05;;;18.85;;
62941;SDS011;49042;47.318;19.874;2023-12-07T01:40:42;31.75;;;18.02;;
62941;SDS011;49042;47.318;19.874;2023-12-07T01:43:47;28.27;;;17.95;;
62941;SDS011;49042;47.318;19.874;2023-12-07T01:46:49;28.23;;;18.35;;
62941;SDS011;49042;47.318;19.874;2023-12-07T01:49:50;27.02;;;17.52;;
62941;SDS011;49042;47.318;19.874;2023-12-07T01:52:54;28.50;;;17.87;;
62941;SDS011;49042;47.318;19.874;2023-12-07T01:55:58;32.55;;;19.02;;
62941;SDS011;49042;47.318;19.874;2023-12-07T01:59:00;31.77;;;19.12;;
62941;SDS011;49042;47.318;19.874;2023-12-07T02:02:02;33.58;;;19.98;;
62941;SDS011;49042;47.318;19.874;2023-12-07T02:05:04;28.83;;;18.08;;
62941;SDS011;49042;47.318;19.874;2023-12-07T02:08:27;28.00;;;18.17;;
62941;SDS011;49042;47.318;19.874;2023-12-07T02:11:28;29.83;;;17.70;;
62941;SDS011;49042;47.318;19.874;2023-12-07T02:14:30;28.15;;;17.87;;
62941;SDS011;49042;47.318;19.874;2023-12-07T02:20:45;26.85;;;16.62;;
62941;SDS011;49042;47.318;19.874;2023-12-07T02:23:53;26.85;;;18.33;;
62941;SDS011;49042;47.318;19.874;2023-12-07T02:26:56;25.80;;;16.40;;
62941;SDS011;49042;47.318;19.874;2023-12-07T02:29:58;25.10;;;16.08;;
62941;SDS011;49042;47.318;19.874;2023-12-07T02:32:59;25.85;;;16.58;;
62941;SDS011;49042;47.318;19.874;2023-12-07T02:36:01;21.80;;;14.18;;
62941;SDS011;49042;47.318;19.874;2023-12-07T02:39:03;23.33;;;15.02;;
62941;SDS011;49042;47.318;19.874;2023-12-07T02:42:07;21.15;;;14.95;;
62941;SDS011;49042;47.318;19.874;2023-12-07T02:45:10;21.37;;;15.00;;
62941;SDS011;49042;47.318;19.874;2023-12-07T02:48:13;23.33;;;17.10;;
62941;SDS011;49042;47.318;19.874;2023-12-07T02:51:15;22.42;;;14.32;;
62941;SDS011;49042;47.318;19.874;2023-12-07T02:54:16;22.65;;;14.45;;
62941;SDS011;49042;47.318;19.874;2023-12-07T02:57:18;22.13;;;14.90;;
62941;SDS011;49042;47.318;19.874;2023-12-07T03:00:20;23.42;;;15.80;;
62941;SDS011;49042;47.318;19.874;2023-12-07T03:03:23;25.05;;;16.33;;
62941;SDS011;49042;47.318;19.874;2023-12-07T03:06:24;23.30;;;15.63;;
62941;SDS011;49042;47.318;19.874;2023-12-07T03:09:26;22.77;;;16.20;;
62941;SDS011;49042;47.318;19.874;2023-12-07T03:12:28;23.60;;;15.70;;
62941;SDS011;49042;47.318;19.874;2023-12-07T03:15:30;25.88;;;16.90;;
62941;SDS011;49042;47.318;19.874;2023-12-07T03:18:31;23.48;;;15.75;;
62941;SDS011;49042;47.318;19.874;2023-12-07T03:21:33;23.52;;;14.82;;
62941;SDS011;49042;47.318;19.874;2023-12-07T03:24:35;20.15;;;14.40;;
62941;SDS011;49042;47.318;19.874;2023-12-07T03:27:37;23.77;;;15.48;;
62941;SDS011;49042;47.318;19.874;2023-12-07T03:30:39;22.65;;;15.15;;
62941;SDS011;49042;47.318;19.874;2023-12-07T03:33:41;22.92;;;15.50;;
62941;SDS011;49042;47.318;19.874;2023-12-07T03:36:47;23.42;;;14.25;;
62941;SDS011;49042;47.318;19.874;2023-12-07T03:39:49;23.08;;;15.10;;
62941;SDS011;49042;47.318;19.874;2023-12-07T03:42:51;24.75;;;15.45;;
62941;SDS011;49042;47.318;19.874;2023-12-07T03:45:57;24.80;;;15.05;;
62941;SDS011;49042;47.318;19.874;2023-12-07T03:48:59;24.45;;;15.70;;
62941;SDS011;49042;47.318;19.874;2023-12-07T03:52:04;25.02;;;15.15;;
62941;SDS011;49042;47.318;19.874;2023-12-07T03:55:06;28.02;;;16.05;;
62941;SDS011;49042;47.318;19.874;2023-12-07T03:58:08;24.10;;;16.50;;
62941;SDS011;49042;47.318;19.874;2023-12-07T04:01:10;33.38;;;19.10;;
62941;SDS011;49042;47.318;19.874;2023-12-07T04:04:12;25.23;;;16.98;;
62941;SDS011;49042;47.318;19.874;2023-12-07T04:07:14;28.12;;;17.75;;
62941;SDS011;49042;47.318;19.874;2023-12-07T04:10:16;27.70;;;16.77;;
62941;SDS011;49042;47.318;19.874;2023-12-07T04:13:17;28.08;;;17.52;;
62941;SDS011;49042;47.318;19.874;2023-12-07T04:16:20;31.05;;;18.00;;
62941;SDS011;49042;47.318;19.874;2023-12-07T04:19:22;30.30;;;17.85;;
62941;SDS011;49042;47.318;19.874;2023-12-07T04:22:23;30.25;;;18.52;;
62941;SDS011;49042;47.318;19.874;2023-12-07T04:25:25;29.35;;;17.77;;
62941;SDS011;49042;47.318;19.874;2023-12-07T04:28:27;31.62;;;17.98;;
62941;SDS011;49042;47.318;19.874;2023-12-07T04:31:29;33.38;;;19.35;;
62941;SDS011;49042;47.318;19.874;2023-12-07T04:34:31;31.37;;;18.67;;
62941;SDS011;49042;47.318;19.874;2023-12-07T04:37:32;30.90;;;20.12;;
62941;SDS011;49042;47.318;19.874;2023-12-07T04:40:34;37.38;;;19.95;;
62941;SDS011;49042;47.318;19.874;2023-12-07T04:43:36;32.13;;;19.65;;
62941;SDS011;49042;47.318;19.874;2023-12-07T04:46:38;35.60;;;20.35;;
62941;SDS011;49042;47.318;19.874;2023-12-07T04:49:41;37.90;;;20.80;;
62941;SDS011;49042;47.318;19.874;2023-12-07T04:52:42;40.63;;;20.92;;
62941;SDS011;49042;47.318;19.874;2023-12-07T04:55:44;35.75;;;20.67;;
62941;SDS011;49042;47.318;19.874;2023-12-07T04:58:52;37.15;;;20.85;;
62941;SDS011;49042;47.318;19.874;2023-12-07T05:01:54;31.27;;;18.70;;
62941;SDS011;49042;47.318;19.874;2023-12-07T05:04:55;36.83;;;19.62;;
62941;SDS011;49042;47.318;19.874;2023-12-07T05:07:57;37.40;;;20.15;;
62941;SDS011;49042;47.318;19.874;2023-12-07T05:10:59;42.58;;;21.70;;
62941;SDS011;49042;47.318;19.874;2023-12-07T05:14:00;37.17;;;20.65;;
62941;SDS011;49042;47.318;19.874;2023-12-07T05:17:02;44.28;;;22.85;;
62941;SDS011;49042;47.318;19.874;2023-12-07T05:20:04;34.83;;;20.67;;
62941;SDS011;49042;47.318;19.874;2023-12-07T05:23:07;38.92;;;21.73;;
62941;SDS011;49042;47.318;19.874;2023-12-07T05:26:09;40.97;;;23.20;;
62941;SDS011;49042;47.318;19.874;2023-12-07T05:29:12;38.42;;;21.30;;
62941;SDS011;49042;47.318;19.874;2023-12-07T05:32:14;38.17;;;21.95;;
62941;SDS011;49042;47.318;19.874;2023-12-07T05:35:16;36.85;;;22.15;;
62941;SDS011;49042;47.318;19.874;2023-12-07T05:38:18;35.38;;;19.92;;
62941;SDS011;49042;47.318;19.874;2023-12-07T05:41:19;38.58;;;21.45;;
62941;SDS011;49042;47.318;19.874;2023-12-07T05:44:21;33.03;;;19.27;;
62941;SDS011;49042;47.318;19.874;2023-12-07T05:47:23;36.00;;;20.10;;
62941;SDS011;49042;47.318;19.874;2023-12-07T05:50:25;34.65;;;20.00;;
62941;SDS011;49042;47.318;19.874;2023-12-07T05:53:28;40.17;;;21.45;;
62941;SDS011;49042;47.318;19.874;2023-12-07T05:56:29;39.22;;;21.62;;
62941;SDS011;49042;47.318;19.874;2023-12-07T05:59:36;35.00;;;21.27;;
62941;SDS011;49042;47.318;19.874;2023-12-07T06:02:38;36.90;;;20.48;;
62941;SDS011;49042;47.318;19.874;2023-12-07T06:05:41;44.58;;;21.75;;
62941;SDS011;49042;47.318;19.874;2023-12-07T06:08:43;41.70;;;21.80;;
62941;SDS011;49042;47.318;19.874;2023-12-07T06:11:46;38.00;;;21.23;;
62941;SDS011;49042;47.318;19.874;2023-12-07T06:14:48;36.15;;;20.15;;
62941;SDS011;49042;47.318;19.874;2023-12-07T06:17:50;40.78;;;20.73;;
62941;SDS011;49042;47.318;19.874;2023-12-07T06:20:52;37.80;;;20.37;;
62941;SDS011;49042;47.318;19.874;2023-12-07T06:23:53;35.53;;;19.98;;
62941;SDS011;49042;47.318;19.874;2023-12-07T06:26:55;47.67;;;21.37;;
62941;SDS011;49042;47.318;19.874;2023-12-07T06:29:57;37.90;;;20.30;;
62941;SDS011;49042;47.318;19.874;2023-12-07T06:32:59;41.25;;;20.75;;
62941;SDS011;49042;47.318;19.874;2023-12-07T06:36:01;36.67;;;20.83;;
62941;SDS011;49042;47.318;19.874;2023-12-07T06:39:04;37.53;;;20.35;;
62941;SDS011;49042;47.318;19.874;2023-12-07T06:42:06;33.40;;;18.40;;
62941;SDS011;49042;47.318;19.874;2023-12-07T06:45:09;31.58;;;17.90;;
62941;SDS011;49042;47.318;19.874;2023-12-07T06:48:14;27.27;;;16.15;;
62941;SDS011;49042;47.318;19.874;2023-12-07T06:51:16;29.35;;;16.67;;
62941;SDS011;49042;47.318;19.874;2023-12-07T06:54:18;27.98;;;15.77;;
62941;SDS011;49042;47.318;19.874;2023-12-07T06:57:20;39.05;;;17.50;;
62941;SDS011;49042;47.318;19.874;2023-12-07T07:00:23;31.58;;;17.15;;
62941;SDS011;49042;47.318;19.874;2023-12-07T07:03:26;32.65;;;17.10;;
62941;SDS011;49042;47.318;19.874;2023-12-07T07:06:29;41.03;;;17.05;;
62941;SDS011;49042;47.318;19.874;2023-12-07T07:09:31;34.95;;;18.52;;
62941;SDS011;49042;47.318;19.874;2023-12-07T07:12:32;35.70;;;18.05;;
62941;SDS011;49042;47.318;19.874;2023-12-07T07:15:34;34.33;;;18.52;;
62941;SDS011;49042;47.318;19.874;2023-12-07T07:18:39;36.35;;;16.58;;
62941;SDS011;49042;47.318;19.874;2023-12-07T07:21:41;43.67;;;17.65;;
62941;SDS011;49042;47.318;19.874;2023-12-07T07:24:42;37.30;;;18.10;;
62941;SDS011;49042;47.318;19.874;2023-12-07T07:27:45;33.47;;;17.70;;
62941;SDS011;49042;47.318;19.874;2023-12-07T07:30:47;30.40;;;15.85;;
62941;SDS011;49042;47.318;19.874;2023-12-07T07:33:49;37.90;;;16.62;;
62941;SDS011;49042;47.318;19.874;2023-12-07T07:37:01;26.35;;;14.18;;
62941;SDS011;49042;47.318;19.874;2023-12-07T07:40:04;25.23;;;14.63;;
62941;SDS011;49042;47.318;19.874;2023-12-07T07:43:08;24.77;;;13.68;;
62941;SDS011;49042;47.318;19.874;2023-12-07T07:46:10;26.67;;;14.48;;
62941;SDS011;49042;47.318;19.874;2023-12-07T07:49:12;27.48;;;14.55;;
62941;SDS011;49042;47.318;19.874;2023-12-07T07:52:13;26.73;;;14.87;;
62941;SDS011;49042;47.318;19.874;2023-12-07T07:55:15;28.38;;;14.85;;
62941;SDS011;49042;47.318;19.874;2023-12-07T07:58:17;24.23;;;13.62;;
62941;SDS011;49042;47.318;19.874;2023-12-07T08:01:19;29.67;;;16.73;;
62941;SDS011;49042;47.318;19.874;2023-12-07T08:04:20;25.58;;;16.20;;
62941;SDS011;49042;47.318;19.874;2023-12-07T08:07:22;27.08;;;15.25;;
62941;SDS011;49042;47.318;19.874;2023-12-07T08:10:24;30.70;;;18.20;;
62941;SDS011;49042;47.318;19.874;2023-12-07T08:13:26;30.40;;;16.87;;
62941;SDS011;49042;47.318;19.874;2023-12-07T08:16:29;26.75;;;15.93;;
62941;SDS011;49042;47.318;19.874;2023-12-07T08:19:30;32.05;;;18.98;;
62941;SDS011;49042;47.318;19.874;2023-12-07T08:22:32;30.02;;;18.33;;
62941;SDS011;49042;47.318;19.874;2023-12-07T08:25:34;33.75;;;17.75;;
62941;SDS011;49042;47.318;19.874;2023-12-07T08:28:36;34.90;;;18.87;;
62941;SDS011;49042;47.318;19.874;2023-12-07T08:31:39;34.65;;;19.80;;
62941;SDS011;49042;47.318;19.874;2023-12-07T08:34:42;32.03;;;18.85;;
62941;SDS011;49042;47.318;19.874;2023-12-07T08:37:43;31.25;;;17.12;;
62941;SDS011;49042;47.318;19.874;2023-12-07T08:40:45;35.60;;;18.77;;
62941;SDS011;49042;47.318;19.874;2023-12-07T08:43:47;31.52;;;15.88;;
62941;SDS011;49042;47.318;19.874;2023-12-07T08:46:49;31.50;;;16.30;;
62941;SDS011;49042;47.318;19.874;2023-12-07T08:49:51;30.88;;;17.70;;
62941;SDS011;49042;47.318;19.874;2023-12-07T08:52:53;35.40;;;18.90;;
62941;SDS011;49042;47.318;19.874;2023-12-07T08:56:04;35.70;;;19.42;;
62941;SDS011;49042;47.318;19.874;2023-12-07T08:59:06;33.22;;;18.37;;
62941;SDS011;49042;47.318;19.874;2023-12-07T09:02:08;37.63;;;22.00;;
62941;SDS011;49042;47.318;19.874;2023-12-07T09:05:10;34.90;;;19.02;;
62941;SDS011;49042;47.318;19.874;2023-12-07T09:08:11;36.10;;;19.52;;
62941;SDS011;49042;47.318;19.874;2023-12-07T09:11:13;36.00;;;19.08;;
62941;SDS011;49042;47.318;19.874;2023-12-07T09:14:15;30.73;;;18.20;;
62941;SDS011;49042;47.318;19.874;2023-12-07T09:17:16;36.00;;;19.00;;
62941;SDS011;49042;47.318;19.874;2023-12-07T09:20:19;39.03;;;21.02;;
62941;SDS011;49042;47.318;19.874;2023-12-07T09:23:21;39.70;;;20.92;;
62941;SDS011;49042;47.318;19.874;2023-12-07T09:26:23;34.85;;;19.77;;
62941;SDS011;49042;47.318;19.874;2023-12-07T09:29:24;32.08;;;17.35;;
62941;SDS011;49042;47.318;19.874;2023-12-07T09:32:26;30.67;;;16.58;;
62941;SDS011;49042;47.318;19.874;2023-12-07T09:35:36;32.45;;;17.33;;
62941;SDS011;49042;47.318;19.874;2023-12-07T09:38:40;33.80;;;16.62;;
62941;SDS011;49042;47.318;19.874;2023-12-07T09:41:42;32.78;;;16.95;;
62941;SDS011;49042;47.318;19.874;2023-12-07T09:44:45;33.08;;;17.55;;
62941;SDS011;49042;47.318;19.874;2023-12-07T09:47:48;32.80;;;16.80;;
62941;SDS011;49042;47.318;19.874;2023-12-07T09:50:50;33.22;;;17.85;;
62941;SDS011;49042;47.318;19.874;2023-12-07T09:53:54;35.30;;;18.55;;
62941;SDS011;49042;47.318;19.874;2023-12-07T09:56:56;41.50;;;19.40;;
62941;SDS011;49042;47.318;19.874;2023-12-07T09:59:58;41.67;;;20.08;;
62941;SDS011;49042;47.318;19.874;2023-12-07T10:03:00;40.78;;;19.27;;
62941;SDS011;49042;47.318;19.874;2023-12-07T10:06:02;36.20;;;18.23;;
62941;SDS011;49042;47.318;19.874;2023-12-07T10:09:04;37.50;;;20.92;;
62941;SDS011;49042;47.318;19.874;2023-12-07T10:12:08;35.05;;;18.15;;
62941;SDS011;49042;47.318;19.874;2023-12-07T10:15:13;30.40;;;17.65;;
62941;SDS011;49042;47.318;19.874;2023-12-07T10:18:16;41.60;;;21.73;;
62941;SDS011;49042;47.318;19.874;2023-12-07T10:21:31;31.73;;;18.85;;
62941;SDS011;49042;47.318;19.874;2023-12-07T10:24:33;31.77;;;17.70;;
62941;SDS011;49042;47.318;19.874;2023-12-07T10:27:36;39.10;;;19.92;;
62941;SDS011;49042;47.318;19.874;2023-12-07T10:30:40;32.40;;;19.70;;
62941;SDS011;49042;47.318;19.874;2023-12-07T10:33:50;57.08;;;25.23;;
62941;SDS011;49042;47.318;19.874;2023-12-07T10:36:52;39.35;;;22.08;;
62941;SDS011;49042;47.318;19.874;2023-12-07T10:39:54;38.83;;;20.08;;
62941;SDS011;49042;47.318;19.874;2023-12-07T10:42:56;40.80;;;22.17;;
62941;SDS011;49042;47.318;19.874;2023-12-07T10:45:59;41.47;;;21.77;;
62941;SDS011;49042;47.318;19.874;2023-12-07T10:49:03;39.28;;;21.00;;
62941;SDS011;49042;47.318;19.874;2023-12-07T10:52:16;46.22;;;22.55;;
62941;SDS011;49042;47.318;19.874;2023-12-07T10:55:30;41.47;;;21.80;;
62941;SDS011;49042;47.318;19.874;2023-12-07T10:58:57;36.00;;;21.05;;
62941;SDS011;49042;47.318;19.874;2023-12-07T11:02:00;42.20;;;21.45;;
62941;SDS011;49042;47.318;19.874;2023-12-07T11:05:03;38.33;;;21.08;;
62941;SDS011;49042;47.318;19.874;2023-12-07T11:08:06;41.53;;;20.67;;
62941;SDS011;49042;47.318;19.874;2023-12-07T11:11:21;45.33;;;24.37;;
62941;SDS011;49042;47.318;19.874;2023-12-07T11:14:27;46.22;;;26.23;;
62941;SDS011;49042;47.318;19.874;2023-12-07T11:17:29;43.25;;;23.10;;
62941;SDS011;49042;47.318;19.874;2023-12-07T11:20:32;53.58;;;29.70;;
62941;SDS011;49042;47.318;19.874;2023-12-07T11:23:46;53.67;;;27.80;;
62941;SDS011;49042;47.318;19.874;2023-12-07T11:26:48;52.20;;;27.00;;
62941;SDS011;49042;47.318;19.874;2023-12-07T11:29:50;48.60;;;24.00;;
62941;SDS011;49042;47.318;19.874;2023-12-07T11:32:52;48.42;;;23.95;;
62941;SDS011;49042;47.318;19.874;2023-12-07T11:36:09;52.70;;;25.58;;
62941;SDS011;49042;47.318;19.874;2023-12-07T11:39:15;51.60;;;26.75;;
62941;SDS011;49042;47.318;19.874;2023-12-07T11:42:27;46.75;;;24.80;;
62941;SDS011;49042;47.318;19.874;2023-12-07T11:48:43;103.40;;;38.90;;
62941;SDS011;49042;47.318;19.874;2023-12-07T11:51:49;55.15;;;26.40;;
62941;SDS011;49042;47.318;19.874;2023-12-07T11:54:50;60.15;;;29.92;;
62941;SDS011;49042;47.318;19.874;2023-12-07T11:57:52;49.88;;;27.30;;
62941;SDS011;49042;47.318;19.874;2023-12-07T12:00:55;79.55;;;36.55;;
62941;SDS011;49042;47.318;19.874;2023-12-07T12:03:58;99.43;;;37.53;;
62941;SDS011;49042;47.318;19.874;2023-12-07T12:07:02;82.72;;;36.17;;
62941;SDS011;49042;47.318;19.874;2023-12-07T12:10:04;58.28;;;31.02;;
62941;SDS011;49042;47.318;19.874;2023-12-07T12:13:06;61.05;;;32.97;;
62941;SDS011;49042;47.318;19.874;2023-12-07T12:16:08;100.70;;;38.60;;
62941;SDS011;49042;47.318;19.874;2023-12-07T12:19:10;111.28;;;42.40;;
62941;SDS011;49042;47.318;19.874;2023-12-07T12:22:16;66.47;;;32.88;;
62941;SDS011;49042;47.318;19.874;2023-12-07T12:25:22;50.20;;;24.75;;
62941;SDS011;49042;47.318;19.874;2023-12-07T12:28:30;59.13;;;26.85;;
62941;SDS011;49042;47.318;19.874;2023-12-07T12:31:34;81.75;;;36.38;;
62941;SDS011;49042;47.318;19.874;2023-12-07T12:34:36;59.50;;;28.35;;
62941;SDS011;49042;47.318;19.874;2023-12-07T12:37:38;57.85;;;29.77;;
62941;SDS011;49042;47.318;19.874;2023-12-07T12:40:40;56.28;;;26.05;;
62941;SDS011;49042;47.318;19.874;2023-12-07T12:43:42;51.45;;;25.60;;
62941;SDS011;49042;47.318;19.874;2023-12-07T12:46:46;53.10;;;25.67;;
62941;SDS011;49042;47.318;19.874;2023-12-07T12:49:48;50.50;;;25.92;;
62941;SDS011;49042;47.318;19.874;2023-12-07T12:52:50;63.13;;;31.25;;
62941;SDS011;49042;47.318;19.874;2023-12-07T12:55:52;43.90;;;23.77;;
62941;SDS011;49042;47.318;19.874;2023-12-07T12:58:54;47.85;;;23.27;;
62941;SDS011;49042;47.318;19.874;2023-12-07T13:02:05;47.10;;;22.35;;
62941;SDS011;49042;47.318;19.874;2023-12-07T13:05:07;49.08;;;24.00;;
62941;SDS011;49042;47.318;19.874;2023-12-07T13:08:09;48.58;;;23.35;;
62941;SDS011;49042;47.318;19.874;2023-12-07T13:11:18;51.33;;;25.17;;
62941;SDS011;49042;47.318;19.874;2023-12-07T13:14:20;94.03;;;41.85;;
62941;SDS011;49042;47.318;19.874;2023-12-07T13:17:22;81.43;;;36.78;;
62941;SDS011;49042;47.318;19.874;2023-12-07T13:20:25;56.83;;;27.62;;
62941;SDS011;49042;47.318;19.874;2023-12-07T13:23:27;52.45;;;27.08;;
62941;SDS011;49042;47.318;19.874;2023-12-07T13:26:29;64.12;;;29.40;;
62941;SDS011;49042;47.318;19.874;2023-12-07T13:29:31;49.55;;;23.95;;
62941;SDS011;49042;47.318;19.874;2023-12-07T13:32:37;61.97;;;28.85;;
62941;SDS011;49042;47.318;19.874;2023-12-07T13:35:39;58.58;;;29.33;;
62941;SDS011;49042;47.318;19.874;2023-12-07T13:38:41;62.03;;;29.90;;
62941;SDS011;49042;47.318;19.874;2023-12-07T13:41:43;52.05;;;26.23;;
62941;SDS011;49042;47.318;19.874;2023-12-07T13:44:45;54.90;;;25.92;;
62941;SDS011;49042;47.318;19.874;2023-12-07T13:47:46;57.67;;;28.40;;
62941;SDS011;49042;47.318;19.874;2023-12-07T13:50:49;57.20;;;26.25;;
62941;SDS011;49042;47.318;19.874;2023-12-07T13:53:51;60.22;;;28.90;;
62941;SDS011;49042;47.318;19.874;2023-12-07T13:57:01;61.03;;;29.90;;
62941;SDS011;49042;47.318;19.874;2023-12-07T14:00:02;76.87;;;40.53;;
62941;SDS011;49042;47.318;19.874;2023-12-07T14:03:05;58.22;;;31.50;;
62941;SDS011;49042;47.318;19.874;2023-12-07T14:06:08;48.53;;;23.70;;
62941;SDS011;49042;47.318;19.874;2023-12-07T14:09:22;54.35;;;25.12;;
62941;SDS011;49042;47.318;19.874;2023-12-07T14:12:24;65.28;;;32.45;;
62941;SDS011;49042;47.318;19.874;2023-12-07T14:15:27;82.45;;;43.08;;
62941;SDS011;49042;47.318;19.874;2023-12-07T14:18:44;63.15;;;31.33;;
62941;SDS011;49042;47.318;19.874;2023-12-07T14:22:05;68.40;;;32.95;;
62941;SDS011;49042;47.318;19.874;2023-12-07T14:25:07;68.20;;;33.05;;
62941;SDS011;49042;47.318;19.874;2023-12-07T14:28:10;69.40;;;32.03;;
62941;SDS011;49042;47.318;19.874;2023-12-07T14:31:11;66.82;;;30.45;;
62941;SDS011;49042;47.318;19.874;2023-12-07T14:34:17;47.80;;;25.27;;
62941;SDS011;49042;47.318;19.874;2023-12-07T14:37:31;60.78;;;32.38;;
62941;SDS011;49042;47.318;19.874;2023-12-07T14:40:33;57.10;;;32.42;;
62941;SDS011;49042;47.318;19.874;2023-12-07T14:43:36;51.40;;;27.50;;
62941;SDS011;49042;47.318;19.874;2023-12-07T14:46:37;55.60;;;29.95;;
62941;SDS011;49042;47.318;19.874;2023-12-07T14:49:39;53.63;;;29.12;;
62941;SDS011;49042;47.318;19.874;2023-12-07T14:52:42;59.72;;;29.20;;
62941;SDS011;49042;47.318;19.874;2023-12-07T14:55:44;57.60;;;28.02;;
62941;SDS011;49042;47.318;19.874;2023-12-07T14:58:46;100.60;;;52.08;;
62941;SDS011;49042;47.318;19.874;2023-12-07T15:01:48;65.72;;;34.55;;
62941;SDS011;49042;47.318;19.874;2023-12-07T15:04:52;61.37;;;32.40;;
62941;SDS011;49042;47.318;19.874;2023-12-07T15:07:53;61.20;;;29.75;;
62941;SDS011;49042;47.318;19.874;2023-12-07T15:10:55;56.20;;;27.70;;
62941;SDS011;49042;47.318;19.874;2023-12-07T15:13:57;61.35;;;31.58;;
62941;SDS011;49042;47.318;19.874;2023-12-07T15:16:59;62.50;;;30.52;;
62941;SDS011;49042;47.318;19.874;2023-12-07T15:20:01;59.33;;;28.58;;
62941;SDS011;49042;47.318;19.874;2023-12-07T15:23:03;94.78;;;45.63;;
62941;SDS011;49042;47.318;19.874;2023-12-07T15:26:06;56.10;;;30.00;;
62941;SDS011;49042;47.318;19.874;2023-12-07T15:29:10;54.90;;;29.63;;
62941;SDS011;49042;47.318;19.874;2023-12-07T15:32:11;61.10;;;31.52;;
62941;SDS011;49042;47.318;19.874;2023-12-07T15:35:13;94.18;;;49.35;;
62941;SDS011;49042;47.318;19.874;2023-12-07T15:38:15;58.38;;;29.75;;
62941;SDS011;49042;47.318;19.874;2023-12-07T15:41:16;57.13;;;27.37;;
62941;SDS011;49042;47.318;19.874;2023-12-07T15:44:18;61.50;;;30.58;;
62941;SDS011;49042;47.318;19.874;2023-12-07T15:47:28;62.05;;;31.52;;
62941;SDS011;49042;47.318;19.874;2023-12-07T15:50:31;57.65;;;31.70;;
62941;SDS011;49042;47.318;19.874;2023-12-07T15:53:35;61.10;;;29.73;;
62941;SDS011;49042;47.318;19.874;2023-12-07T15:56:40;59.38;;;30.80;;
62941;SDS011;49042;47.318;19.874;2023-12-07T15:59:42;52.38;;;26.25;;
62941;SDS011;49042;47.318;19.874;2023-12-07T16:02:44;52.80;;;26.67;;
62941;SDS011;49042;47.318;19.874;2023-12-07T16:05:46;47.85;;;26.98;;
62941;SDS011;49042;47.318;19.874;2023-12-07T16:08:48;60.30;;;32.45;;
62941;SDS011;49042;47.318;19.874;2023-12-07T16:11:50;58.75;;;31.85;;
62941;SDS011;49042;47.318;19.874;2023-12-07T16:14:52;58.35;;;30.08;;
62941;SDS011;49042;47.318;19.874;2023-12-07T16:17:57;60.20;;;32.60;;
62941;SDS011;49042;47.318;19.874;2023-12-07T16:20:59;67.03;;;33.05;;
62941;SDS011;49042;47.318;19.874;2023-12-07T16:24:01;58.33;;;28.90;;
62941;SDS011;49042;47.318;19.874;2023-12-07T16:27:03;58.17;;;27.50;;
62941;SDS011;49042;47.318;19.874;2023-12-07T16:30:09;52.40;;;25.15;;
62941;SDS011;49042;47.318;19.874;2023-12-07T16:33:16;53.33;;;29.37;;
62941;SDS011;49042;47.318;19.874;2023-12-07T16:36:18;70.00;;;35.00;;
62941;SDS011;49042;47.318;19.874;2023-12-07T16:39:24;54.70;;;29.30;;
62941;SDS011;49042;47.318;19.874;2023-12-07T16:42:26;84.62;;;40.67;;
62941;SDS011;49042;47.318;19.874;2023-12-07T16:45:28;70.55;;;39.92;;
62941;SDS011;49042;47.318;19.874;2023-12-07T16:48:33;95.60;;;45.33;;
62941;SDS011;49042;47.318;19.874;2023-12-07T16:51:35;72.68;;;37.13;;
62941;SDS011;49042;47.318;19.874;2023-12-07T16:54:39;74.22;;;38.58;;
62941;SDS011;49042;47.318;19.874;2023-12-07T16:57:41;65.60;;;35.22;;
62941;SDS011;49042;47.318;19.874;2023-12-07T17:00:43;54.33;;;28.85;;
62941;SDS011;49042;47.318;19.874;2023-12-07T17:03:44;73.93;;;35.17;;
62941;SDS011;49042;47.318;19.874;2023-12-07T17:06:48;70.93;;;34.20;;
62941;SDS011;49042;47.318;19.874;2023-12-07T17:09:58;53.33;;;25.77;;
62941;SDS011;49042;47.318;19.874;2023-12-07T17:13:00;62.42;;;31.10;;
62941;SDS011;49042;47.318;19.874;2023-12-07T17:16:02;46.25;;;23.08;;
62941;SDS011;49042;47.318;19.874;2023-12-07T17:19:05;88.72;;;41.03;;
62941;SDS011;49042;47.318;19.874;2023-12-07T17:22:07;65.32;;;31.90;;
62941;SDS011;49042;47.318;19.874;2023-12-07T17:25:10;57.88;;;31.33;;
62941;SDS011;49042;47.318;19.874;2023-12-07T17:28:11;80.82;;;40.88;;
62941;SDS011;49042;47.318;19.874;2023-12-07T17:31:13;74.45;;;38.67;;
62941;SDS011;49042;47.318;19.874;2023-12-07T17:34:15;60.30;;;30.62;;
62941;SDS011;49042;47.318;19.874;2023-12-07T17:37:17;79.18;;;35.60;;
62941;SDS011;49042;47.318;19.874;2023-12-07T17:40:20;65.30;;;29.67;;